Retour à l'actu

LFPG

METAR

LFPG 121530Z 10009KT 060V150 CAVOK 35/15 Q1010 TEMPO 2500 TSRA BKN070CB

TAF

LFPG 121100Z
  • | 1212/1318 11010KT CAVOK TX35/1214Z TN20/1305Z
  • | BECMG 1213/1215 SCT070TCU
  • | TEMPO 1215/1302 SCT070CB
  • | TEMPO 1216/1301 2500 TSRA BKN070CB
  • | PROB30 TEMPO 1217/1223 VRB15G35KT 1500 TSGR BKN060CB
  • | PROB30 TEMPO 1310/1318 18015G25KT 3000 TSRA SCT050CB